Main page
METAR-TAF:

Airports :

Baia Mare, Romania

Baia Mare Airport

latitude: 47-40N, longitude: 023-35E, elevation: 218 m

Current weather observation

The report was made 20 minutes ago, at 15:30 UTC
Wind 2 kt from the South
Temperature 22°C
Humidity 88%
Pressure 1014 hPa
Visibility 10 km or more
Scattered clouds at a height of 4000 ft, Cumulonimbus.
light rain showers

METAR: LRBM 291530Z 18002KT 9999 -SHRA SCT040CB 22/20 Q1014

Time: 18:50 (15:50 UTC)

Forecast

The report was made 1 hour and 50 minutes ago, at 14:00 UTC
Forecast valid from 29 at 15 UTC to 29 at 24 UTC
Wind 4 kt from variable directions
Visibility 10 km or more
no clouds below 1500 m and no cumulonimbus
Temporary
from 29 at 15 UTC to 29 at 17 UTC
Visibility: 3000 m
Scattered clouds at a height of 3000 ft, Cumulonimbus.
thunderstorm, rain

TAF: LRBM 291400Z 2915/2924 VRB04KT CAVOK TEMPO 2915/2917 3000 TSRA SCT030CB

METAR-TAF

Weather observations and forecasts of more than 4000 airports (METAR and TAF reports).

The available stations are represented by yellow and red dots on the map.

Hover mouse over dot to see the name of the station.

Then click to see weather observations and forecasts.

To change the map : click on the green buttons with a black cross to zoom in, on the green button with a dash to zoom out, or on the green arrows for adjacent maps.


METAR-TAF: